sensor_id;sensor_type;location;lat;lon;timestamp;P1;durP1;ratioP1;P2;durP2;ratioP2
9176;SDS011;4623;54.310;10.112;2022-08-23T00:00:40;11.93;;;7.82;;
9176;SDS011;4623;54.310;10.112;2022-08-23T00:03:06;13.50;;;7.80;;
9176;SDS011;4623;54.310;10.112;2022-08-23T00:05:32;9.95;;;6.57;;
9176;SDS011;4623;54.310;10.112;2022-08-23T00:08:01;8.57;;;5.10;;
9176;SDS011;4623;54.310;10.112;2022-08-23T00:10:26;8.90;;;5.07;;
9176;SDS011;4623;54.310;10.112;2022-08-23T00:12:52;9.73;;;4.30;;
9176;SDS011;4623;54.310;10.112;2022-08-23T00:15:18;8.75;;;4.43;;
9176;SDS011;4623;54.310;10.112;2022-08-23T00:17:45;5.53;;;3.25;;
9176;SDS011;4623;54.310;10.112;2022-08-23T00:20:16;5.93;;;2.92;;
9176;SDS011;4623;54.310;10.112;2022-08-23T00:22:43;5.60;;;2.80;;
9176;SDS011;4623;54.310;10.112;2022-08-23T00:25:10;4.05;;;3.10;;
9176;SDS011;4623;54.310;10.112;2022-08-23T00:27:37;5.22;;;2.30;;
9176;SDS011;4623;54.310;10.112;2022-08-23T00:30:04;5.82;;;2.40;;
9176;SDS011;4623;54.310;10.112;2022-08-23T00:32:32;4.03;;;2.65;;
9176;SDS011;4623;54.310;10.112;2022-08-23T00:34:59;2.38;;;2.17;;
9176;SDS011;4623;54.310;10.112;2022-08-23T00:37:26;3.00;;;1.92;;
9176;SDS011;4623;54.310;10.112;2022-08-23T00:39:53;6.72;;;2.28;;
9176;SDS011;4623;54.310;10.112;2022-08-23T00:45:15;4.93;;;3.08;;
9176;SDS011;4623;54.310;10.112;2022-08-23T00:48:03;3.60;;;2.40;;
9176;SDS011;4623;54.310;10.112;2022-08-23T00:50:33;5.93;;;2.30;;
9176;SDS011;4623;54.310;10.112;2022-08-23T00:55:32;3.40;;;2.00;;
9176;SDS011;4623;54.310;10.112;2022-08-23T00:57:59;4.43;;;2.63;;
9176;SDS011;4623;54.310;10.112;2022-08-23T01:00:26;5.82;;;2.47;;
9176;SDS011;4623;54.310;10.112;2022-08-23T01:02:52;4.43;;;2.03;;
9176;SDS011;4623;54.310;10.112;2022-08-23T01:05:19;4.18;;;2.42;;
9176;SDS011;4623;54.310;10.112;2022-08-23T01:07:53;7.47;;;2.80;;
9176;SDS011;4623;54.310;10.112;2022-08-23T01:12:54;4.32;;;2.33;;
9176;SDS011;4623;54.310;10.112;2022-08-23T01:15:29;2.83;;;2.00;;
9176;SDS011;4623;54.310;10.112;2022-08-23T01:18:02;3.45;;;2.33;;
9176;SDS011;4623;54.310;10.112;2022-08-23T01:20:33;6.88;;;2.80;;
9176;SDS011;4623;54.310;10.112;2022-08-23T01:25:51;5.10;;;2.28;;
9176;SDS011;4623;54.310;10.112;2022-08-23T01:28:18;5.82;;;2.45;;
9176;SDS011;4623;54.310;10.112;2022-08-23T01:30:43;5.60;;;3.15;;
9176;SDS011;4623;54.310;10.112;2022-08-23T01:33:11;4.80;;;2.60;;
9176;SDS011;4623;54.310;10.112;2022-08-23T01:35:42;5.15;;;2.47;;
9176;SDS011;4623;54.310;10.112;2022-08-23T01:38:11;4.05;;;2.30;;
9176;SDS011;4623;54.310;10.112;2022-08-23T01:40:38;3.13;;;1.95;;
9176;SDS011;4623;54.310;10.112;2022-08-23T01:43:05;4.28;;;2.50;;
9176;SDS011;4623;54.310;10.112;2022-08-23T01:45:31;4.47;;;2.50;;
9176;SDS011;4623;54.310;10.112;2022-08-23T01:47:58;6.47;;;2.05;;
9176;SDS011;4623;54.310;10.112;2022-08-23T01:50:23;4.25;;;2.40;;
9176;SDS011;4623;54.310;10.112;2022-08-23T01:52:50;4.82;;;2.45;;
9176;SDS011;4623;54.310;10.112;2022-08-23T01:55:16;2.63;;;2.13;;
9176;SDS011;4623;54.310;10.112;2022-08-23T01:57:43;4.22;;;2.63;;
9176;SDS011;4623;54.310;10.112;2022-08-23T02:00:10;4.22;;;2.38;;
9176;SDS011;4623;54.310;10.112;2022-08-23T02:02:36;3.93;;;2.33;;
9176;SDS011;4623;54.310;10.112;2022-08-23T02:05:04;4.67;;;1.97;;
9176;SDS011;4623;54.310;10.112;2022-08-23T02:07:30;5.18;;;2.85;;
9176;SDS011;4623;54.310;10.112;2022-08-23T02:09:56;3.87;;;2.67;;
9176;SDS011;4623;54.310;10.112;2022-08-23T02:12:21;5.63;;;2.60;;
9176;SDS011;4623;54.310;10.112;2022-08-23T02:14:47;3.67;;;2.20;;
9176;SDS011;4623;54.310;10.112;2022-08-23T02:17:13;4.43;;;2.37;;
9176;SDS011;4623;54.310;10.112;2022-08-23T02:19:40;4.93;;;2.10;;
9176;SDS011;4623;54.310;10.112;2022-08-23T02:22:07;4.73;;;2.50;;
9176;SDS011;4623;54.310;10.112;2022-08-23T02:24:34;6.80;;;2.23;;
9176;SDS011;4623;54.310;10.112;2022-08-23T02:27:04;3.27;;;2.60;;
9176;SDS011;4623;54.310;10.112;2022-08-23T02:29:30;3.03;;;2.23;;
9176;SDS011;4623;54.310;10.112;2022-08-23T02:31:57;4.27;;;2.77;;
9176;SDS011;4623;54.310;10.112;2022-08-23T02:34:23;4.43;;;2.47;;
9176;SDS011;4623;54.310;10.112;2022-08-23T02:36:49;5.43;;;2.87;;
9176;SDS011;4623;54.310;10.112;2022-08-23T02:39:15;4.22;;;2.45;;
9176;SDS011;4623;54.310;10.112;2022-08-23T02:41:41;5.53;;;2.20;;
9176;SDS011;4623;54.310;10.112;2022-08-23T02:44:07;5.70;;;2.57;;
9176;SDS011;4623;54.310;10.112;2022-08-23T02:46:35;4.70;;;3.40;;
9176;SDS011;4623;54.310;10.112;2022-08-23T02:49:00;3.17;;;2.43;;
9176;SDS011;4623;54.310;10.112;2022-08-23T02:51:27;3.73;;;2.70;;
9176;SDS011;4623;54.310;10.112;2022-08-23T02:53:52;4.63;;;2.50;;
9176;SDS011;4623;54.310;10.112;2022-08-23T02:56:18;5.60;;;2.80;;
9176;SDS011;4623;54.310;10.112;2022-08-23T02:58:44;3.63;;;2.17;;
9176;SDS011;4623;54.310;10.112;2022-08-23T03:01:21;4.80;;;2.83;;
9176;SDS011;4623;54.310;10.112;2022-08-23T03:03:49;5.07;;;2.83;;
9176;SDS011;4623;54.310;10.112;2022-08-23T03:06:15;3.17;;;2.50;;
9176;SDS011;4623;54.310;10.112;2022-08-23T03:08:42;4.73;;;1.90;;
9176;SDS011;4623;54.310;10.112;2022-08-23T03:11:12;4.35;;;2.70;;
9176;SDS011;4623;54.310;10.112;2022-08-23T03:13:39;6.70;;;2.70;;
9176;SDS011;4623;54.310;10.112;2022-08-23T03:16:06;4.23;;;2.50;;
9176;SDS011;4623;54.310;10.112;2022-08-23T03:18:33;5.47;;;2.57;;
9176;SDS011;4623;54.310;10.112;2022-08-23T03:20:59;3.43;;;2.57;;
9176;SDS011;4623;54.310;10.112;2022-08-23T03:23:25;6.57;;;3.30;;
9176;SDS011;4623;54.310;10.112;2022-08-23T03:25:51;3.83;;;2.30;;
9176;SDS011;4623;54.310;10.112;2022-08-23T03:28:17;5.10;;;2.40;;
9176;SDS011;4623;54.310;10.112;2022-08-23T03:30:43;4.33;;;2.33;;
9176;SDS011;4623;54.310;10.112;2022-08-23T03:33:09;3.43;;;2.80;;
9176;SDS011;4623;54.310;10.112;2022-08-23T03:35:35;5.57;;;3.17;;
9176;SDS011;4623;54.310;10.112;2022-08-23T03:38:00;5.20;;;2.50;;
9176;SDS011;4623;54.310;10.112;2022-08-23T03:40:26;4.87;;;2.90;;
9176;SDS011;4623;54.310;10.112;2022-08-23T03:42:51;3.77;;;2.67;;
9176;SDS011;4623;54.310;10.112;2022-08-23T03:45:17;3.90;;;2.33;;
9176;SDS011;4623;54.310;10.112;2022-08-23T03:47:43;3.50;;;2.27;;
9176;SDS011;4623;54.310;10.112;2022-08-23T03:50:09;5.13;;;2.63;;
9176;SDS011;4623;54.310;10.112;2022-08-23T03:52:35;4.78;;;2.88;;
9176;SDS011;4623;54.310;10.112;2022-08-23T03:55:01;5.07;;;2.70;;
9176;SDS011;4623;54.310;10.112;2022-08-23T03:57:27;6.32;;;2.90;;
9176;SDS011;4623;54.310;10.112;2022-08-23T03:59:53;4.57;;;2.47;;
9176;SDS011;4623;54.310;10.112;2022-08-23T04:02:18;5.00;;;2.77;;
9176;SDS011;4623;54.310;10.112;2022-08-23T04:04:44;3.85;;;2.58;;
9176;SDS011;4623;54.310;10.112;2022-08-23T04:07:10;4.53;;;2.45;;
9176;SDS011;4623;54.310;10.112;2022-08-23T04:09:36;4.13;;;2.88;;
9176;SDS011;4623;54.310;10.112;2022-08-23T04:12:02;4.07;;;2.37;;
9176;SDS011;4623;54.310;10.112;2022-08-23T04:14:28;4.53;;;2.47;;
9176;SDS011;4623;54.310;10.112;2022-08-23T04:16:54;3.83;;;2.40;;
9176;SDS011;4623;54.310;10.112;2022-08-23T04:19:19;4.28;;;2.08;;
9176;SDS011;4623;54.310;10.112;2022-08-23T04:21:47;2.75;;;2.50;;
9176;SDS011;4623;54.310;10.112;2022-08-23T04:24:15;4.80;;;3.00;;
9176;SDS011;4623;54.310;10.112;2022-08-23T04:26:41;5.30;;;2.60;;
9176;SDS011;4623;54.310;10.112;2022-08-23T04:29:07;6.27;;;2.90;;
9176;SDS011;4623;54.310;10.112;2022-08-23T04:31:35;4.93;;;2.40;;
9176;SDS011;4623;54.310;10.112;2022-08-23T04:34:01;5.90;;;2.88;;
9176;SDS011;4623;54.310;10.112;2022-08-23T04:36:28;5.60;;;2.47;;
9176;SDS011;4623;54.310;10.112;2022-08-23T04:38:58;3.67;;;2.33;;
9176;SDS011;4623;54.310;10.112;2022-08-23T04:41:24;4.57;;;3.00;;
9176;SDS011;4623;54.310;10.112;2022-08-23T04:44:08;3.38;;;2.55;;
9176;SDS011;4623;54.310;10.112;2022-08-23T04:46:33;7.30;;;3.10;;
9176;SDS011;4623;54.310;10.112;2022-08-23T04:48:59;7.38;;;3.20;;
9176;SDS011;4623;54.310;10.112;2022-08-23T04:51:25;3.17;;;2.80;;
9176;SDS011;4623;54.310;10.112;2022-08-23T04:53:51;5.30;;;3.00;;
9176;SDS011;4623;54.310;10.112;2022-08-23T04:56:17;6.00;;;3.38;;
9176;SDS011;4623;54.310;10.112;2022-08-23T04:58:42;4.97;;;3.13;;
9176;SDS011;4623;54.310;10.112;2022-08-23T05:01:09;6.15;;;3.13;;
9176;SDS011;4623;54.310;10.112;2022-08-23T05:03:35;3.88;;;3.10;;
9176;SDS011;4623;54.310;10.112;2022-08-23T05:06:01;5.82;;;3.40;;
9176;SDS011;4623;54.310;10.112;2022-08-23T05:08:29;4.90;;;3.28;;
9176;SDS011;4623;54.310;10.112;2022-08-23T05:10:58;7.68;;;3.55;;
9176;SDS011;4623;54.310;10.112;2022-08-23T05:13:25;6.23;;;3.50;;
9176;SDS011;4623;54.310;10.112;2022-08-23T05:15:50;4.15;;;3.20;;
9176;SDS011;4623;54.310;10.112;2022-08-23T05:18:17;5.60;;;3.40;;
9176;SDS011;4623;54.310;10.112;2022-08-23T05:20:42;3.83;;;3.10;;
9176;SDS011;4623;54.310;10.112;2022-08-23T05:23:09;5.00;;;3.08;;
9176;SDS011;4623;54.310;10.112;2022-08-23T05:25:34;5.30;;;3.08;;
9176;SDS011;4623;54.310;10.112;2022-08-23T05:28:17;4.72;;;2.80;;
9176;SDS011;4623;54.310;10.112;2022-08-23T05:30:43;4.05;;;2.88;;
9176;SDS011;4623;54.310;10.112;2022-08-23T05:33:09;3.88;;;2.08;;
9176;SDS011;4623;54.310;10.112;2022-08-23T05:35:36;3.75;;;2.78;;
9176;SDS011;4623;54.310;10.112;2022-08-23T05:38:02;3.55;;;3.00;;
9176;SDS011;4623;54.310;10.112;2022-08-23T05:40:28;2.47;;;2.25;;
9176;SDS011;4623;54.310;10.112;2022-08-23T05:42:54;6.57;;;2.55;;
9176;SDS011;4623;54.310;10.112;2022-08-23T05:45:19;3.80;;;2.28;;
9176;SDS011;4623;54.310;10.112;2022-08-23T05:47:45;4.18;;;2.35;;
9176;SDS011;4623;54.310;10.112;2022-08-23T05:50:11;2.92;;;2.38;;
9176;SDS011;4623;54.310;10.112;2022-08-23T05:52:37;5.95;;;2.55;;
9176;SDS011;4623;54.310;10.112;2022-08-23T05:55:04;3.35;;;2.42;;
9176;SDS011;4623;54.310;10.112;2022-08-23T05:57:33;4.53;;;2.28;;
9176;SDS011;4623;54.310;10.112;2022-08-23T05:59:59;4.07;;;2.55;;
9176;SDS011;4623;54.310;10.112;2022-08-23T06:02:25;2.85;;;2.25;;
9176;SDS011;4623;54.310;10.112;2022-08-23T06:04:50;2.58;;;2.38;;
9176;SDS011;4623;54.310;10.112;2022-08-23T06:07:16;2.88;;;1.75;;
9176;SDS011;4623;54.310;10.112;2022-08-23T06:09:41;3.60;;;2.55;;
9176;SDS011;4623;54.310;10.112;2022-08-23T06:12:07;2.28;;;1.90;;
9176;SDS011;4623;54.310;10.112;2022-08-23T06:14:33;2.08;;;1.88;;
9176;SDS011;4623;54.310;10.112;2022-08-23T06:16:58;5.90;;;2.60;;
9176;SDS011;4623;54.310;10.112;2022-08-23T06:19:24;5.25;;;3.03;;
9176;SDS011;4623;54.310;10.112;2022-08-23T06:21:50;2.85;;;2.10;;
9176;SDS011;4623;54.310;10.112;2022-08-23T06:24:17;5.68;;;2.78;;
9176;SDS011;4623;54.310;10.112;2022-08-23T06:26:43;3.28;;;2.25;;
9176;SDS011;4623;54.310;10.112;2022-08-23T06:29:13;2.97;;;2.00;;
9176;SDS011;4623;54.310;10.112;2022-08-23T06:31:42;3.42;;;2.40;;
9176;SDS011;4623;54.310;10.112;2022-08-23T06:34:10;7.78;;;2.70;;
9176;SDS011;4623;54.310;10.112;2022-08-23T06:36:37;6.35;;;2.50;;
9176;SDS011;4623;54.310;10.112;2022-08-23T06:39:07;4.38;;;2.10;;
9176;SDS011;4623;54.310;10.112;2022-08-23T06:41:34;3.15;;;1.90;;
9176;SDS011;4623;54.310;10.112;2022-08-23T06:44:00;3.38;;;2.25;;
9176;SDS011;4623;54.310;10.112;2022-08-23T06:46:27;2.78;;;2.00;;
9176;SDS011;4623;54.310;10.112;2022-08-23T06:48:53;4.47;;;2.45;;
9176;SDS011;4623;54.310;10.112;2022-08-23T06:51:21;3.95;;;2.00;;
9176;SDS011;4623;54.310;10.112;2022-08-23T06:53:47;2.97;;;2.42;;
9176;SDS011;4623;54.310;10.112;2022-08-23T06:56:14;3.15;;;2.28;;
9176;SDS011;4623;54.310;10.112;2022-08-23T06:58:39;5.03;;;2.10;;
9176;SDS011;4623;54.310;10.112;2022-08-23T07:03:41;4.47;;;2.13;;
9176;SDS011;4623;54.310;10.112;2022-08-23T07:06:07;2.25;;;1.73;;
9176;SDS011;4623;54.310;10.112;2022-08-23T07:08:33;2.47;;;1.67;;
9176;SDS011;4623;54.310;10.112;2022-08-23T07:10:59;3.88;;;1.80;;
9176;SDS011;4623;54.310;10.112;2022-08-23T07:13:25;3.17;;;1.85;;
9176;SDS011;4623;54.310;10.112;2022-08-23T07:15:52;2.20;;;2.00;;
9176;SDS011;4623;54.310;10.112;2022-08-23T07:18:24;2.05;;;1.63;;
9176;SDS011;4623;54.310;10.112;2022-08-23T07:20:54;2.78;;;1.88;;
9176;SDS011;4623;54.310;10.112;2022-08-23T07:23:24;4.50;;;2.50;;
9176;SDS011;4623;54.310;10.112;2022-08-23T07:25:50;1.58;;;1.48;;
9176;SDS011;4623;54.310;10.112;2022-08-23T07:28:16;1.65;;;1.40;;
9176;SDS011;4623;54.310;10.112;2022-08-23T07:30:42;3.08;;;1.95;;
9176;SDS011;4623;54.310;10.112;2022-08-23T07:33:08;3.65;;;2.03;;
9176;SDS011;4623;54.310;10.112;2022-08-23T07:35:33;3.20;;;1.92;;
9176;SDS011;4623;54.310;10.112;2022-08-23T07:37:59;3.15;;;2.15;;
9176;SDS011;4623;54.310;10.112;2022-08-23T07:40:24;3.13;;;2.05;;
9176;SDS011;4623;54.310;10.112;2022-08-23T07:42:51;2.30;;;1.85;;
9176;SDS011;4623;54.310;10.112;2022-08-23T07:45:20;1.92;;;1.60;;
9176;SDS011;4623;54.310;10.112;2022-08-23T07:47:46;2.00;;;1.80;;
9176;SDS011;4623;54.310;10.112;2022-08-23T07:50:11;1.92;;;1.65;;
9176;SDS011;4623;54.310;10.112;2022-08-23T07:52:37;1.92;;;1.65;;
9176;SDS011;4623;54.310;10.112;2022-08-23T07:55:02;2.10;;;1.85;;
9176;SDS011;4623;54.310;10.112;2022-08-23T07:57:28;2.58;;;2.03;;
9176;SDS011;4623;54.310;10.112;2022-08-23T07:59:54;3.47;;;1.98;;
9176;SDS011;4623;54.310;10.112;2022-08-23T08:02:20;2.53;;;1.80;;
9176;SDS011;4623;54.310;10.112;2022-08-23T08:04:46;2.88;;;1.88;;
9176;SDS011;4623;54.310;10.112;2022-08-23T08:07:12;2.15;;;1.77;;
9176;SDS011;4623;54.310;10.112;2022-08-23T08:09:38;3.28;;;1.95;;
9176;SDS011;4623;54.310;10.112;2022-08-23T08:12:03;3.33;;;2.45;;
9176;SDS011;4623;54.310;10.112;2022-08-23T08:14:29;4.78;;;1.98;;
9176;SDS011;4623;54.310;10.112;2022-08-23T08:16:55;3.47;;;1.92;;
9176;SDS011;4623;54.310;10.112;2022-08-23T08:19:22;4.30;;;1.90;;
9176;SDS011;4623;54.310;10.112;2022-08-23T08:21:48;2.67;;;1.75;;
9176;SDS011;4623;54.310;10.112;2022-08-23T08:24:14;3.05;;;2.15;;
9176;SDS011;4623;54.310;10.112;2022-08-23T08:26:41;2.45;;;2.00;;
9176;SDS011;4623;54.310;10.112;2022-08-23T08:29:08;2.63;;;1.90;;
9176;SDS011;4623;54.310;10.112;2022-08-23T08:31:37;6.05;;;2.67;;
9176;SDS011;4623;54.310;10.112;2022-08-23T08:34:05;2.00;;;1.80;;
9176;SDS011;4623;54.310;10.112;2022-08-23T08:36:39;3.90;;;2.00;;
9176;SDS011;4623;54.310;10.112;2022-08-23T08:39:08;4.32;;;2.00;;
9176;SDS011;4623;54.310;10.112;2022-08-23T08:46:53;7.53;;;2.05;;
9176;SDS011;4623;54.310;10.112;2022-08-23T08:52:10;2.92;;;2.10;;
9176;SDS011;4623;54.310;10.112;2022-08-23T08:54:37;2.90;;;1.75;;
9176;SDS011;4623;54.310;10.112;2022-08-23T08:57:06;6.00;;;2.17;;
9176;SDS011;4623;54.310;10.112;2022-08-23T08:59:44;3.55;;;2.10;;
9176;SDS011;4623;54.310;10.112;2022-08-23T09:02:17;3.80;;;2.38;;
9176;SDS011;4623;54.310;10.112;2022-08-23T09:04:44;3.58;;;1.98;;
9176;SDS011;4623;54.310;10.112;2022-08-23T09:12:40;4.22;;;1.90;;
9176;SDS011;4623;54.310;10.112;2022-08-23T09:18:09;2.50;;;1.63;;
9176;SDS011;4623;54.310;10.112;2022-08-23T09:20:37;4.55;;;2.88;;
9176;SDS011;4623;54.310;10.112;2022-08-23T09:23:06;2.75;;;1.77;;
9176;SDS011;4623;54.310;10.112;2022-08-23T09:25:35;2.58;;;2.25;;
9176;SDS011;4623;54.310;10.112;2022-08-23T09:28:01;1.75;;;1.60;;
9176;SDS011;4623;54.310;10.112;2022-08-23T09:33:18;2.58;;;2.05;;
9176;SDS011;4623;54.310;10.112;2022-08-23T09:38:33;1.70;;;1.60;;
9176;SDS011;4623;54.310;10.112;2022-08-23T09:40:59;3.72;;;2.38;;
9176;SDS011;4623;54.310;10.112;2022-08-23T09:43:26;2.28;;;1.88;;
9176;SDS011;4623;54.310;10.112;2022-08-23T09:45:54;2.17;;;2.00;;
9176;SDS011;4623;54.310;10.112;2022-08-23T09:48:40;1.95;;;1.80;;
9176;SDS011;4623;54.310;10.112;2022-08-23T09:56:35;2.20;;;1.98;;
9176;SDS011;4623;54.310;10.112;2022-08-23T10:01:49;2.33;;;1.77;;
9176;SDS011;4623;54.310;10.112;2022-08-23T10:04:21;2.05;;;1.77;;
9176;SDS011;4623;54.310;10.112;2022-08-23T10:09:48;2.80;;;1.77;;
9176;SDS011;4623;54.310;10.112;2022-08-23T10:12:14;4.15;;;2.10;;
9176;SDS011;4623;54.310;10.112;2022-08-23T10:14:40;5.47;;;2.40;;
9176;SDS011;4623;54.310;10.112;2022-08-23T10:17:17;3.58;;;1.90;;
9176;SDS011;4623;54.310;10.112;2022-08-23T10:23:16;3.50;;;1.60;;
9176;SDS011;4623;54.310;10.112;2022-08-23T10:25:54;7.00;;;2.30;;
9176;SDS011;4623;54.310;10.112;2022-08-23T10:31:30;2.28;;;1.75;;
9176;SDS011;4623;54.310;10.112;2022-08-23T10:39:37;2.53;;;1.95;;
9176;SDS011;4623;54.310;10.112;2022-08-23T10:42:17;2.92;;;1.92;;
9176;SDS011;4623;54.310;10.112;2022-08-23T10:45:08;3.63;;;2.38;;
9176;SDS011;4623;54.310;10.112;2022-08-23T10:48:22;2.22;;;1.67;;
9176;SDS011;4623;54.310;10.112;2022-08-23T10:53:48;2.40;;;1.70;;
9176;SDS011;4623;54.310;10.112;2022-08-23T10:56:21;2.38;;;1.67;;
9176;SDS011;4623;54.310;10.112;2022-08-23T10:59:01;2.55;;;1.70;;
9176;SDS011;4623;54.310;10.112;2022-08-23T11:01:34;2.30;;;1.85;;
9176;SDS011;4623;54.310;10.112;2022-08-23T11:04:26;3.58;;;1.90;;
9176;SDS011;4623;54.310;10.112;2022-08-23T11:07:15;2.92;;;2.00;;
9176;SDS011;4623;54.310;10.112;2022-08-23T11:09:48;3.38;;;1.85;;
9176;SDS011;4623;54.310;10.112;2022-08-23T11:12:21;2.58;;;1.90;;
9176;SDS011;4623;54.310;10.112;2022-08-23T11:17:23;3.13;;;1.98;;
9176;SDS011;4623;54.310;10.112;2022-08-23T11:20:04;2.83;;;1.92;;
9176;SDS011;4623;54.310;10.112;2022-08-23T11:23:09;2.75;;;1.90;;
9176;SDS011;4623;54.310;10.112;2022-08-23T11:27:47;4.13;;;1.85;;
9176;SDS011;4623;54.310;10.112;2022-08-23T11:35:54;1.90;;;1.70;;
9176;SDS011;4623;54.310;10.112;2022-08-23T12:04:56;2.70;;;1.65;;
9176;SDS011;4623;54.310;10.112;2022-08-23T12:07:41;2.13;;;1.63;;
9176;SDS011;4623;54.310;10.112;2022-08-23T12:10:09;1.52;;;1.42;;
9176;SDS011;4623;54.310;10.112;2022-08-23T12:12:35;2.00;;;1.63;;
9176;SDS011;4623;54.310;10.112;2022-08-23T12:15:05;3.75;;;2.33;;
9176;SDS011;4623;54.310;10.112;2022-08-23T12:25:23;3.03;;;1.52;;
9176;SDS011;4623;54.310;10.112;2022-08-23T12:31:06;3.13;;;1.92;;
9176;SDS011;4623;54.310;10.112;2022-08-23T12:33:51;2.95;;;1.60;;
9176;SDS011;4623;54.310;10.112;2022-08-23T12:36:26;3.10;;;1.90;;
9176;SDS011;4623;54.310;10.112;2022-08-23T12:39:08;2.10;;;1.85;;
9176;SDS011;4623;54.310;10.112;2022-08-23T12:42:14;3.50;;;1.73;;
9176;SDS011;4623;54.310;10.112;2022-08-23T12:44:43;1.95;;;1.35;;
9176;SDS011;4623;54.310;10.112;2022-08-23T12:47:12;3.42;;;1.92;;
9176;SDS011;4623;54.310;10.112;2022-08-23T12:49:41;2.75;;;1.80;;
9176;SDS011;4623;54.310;10.112;2022-08-23T12:52:22;4.15;;;1.45;;
9176;SDS011;4623;54.310;10.112;2022-08-23T12:54:53;4.60;;;2.33;;
9176;SDS011;4623;54.310;10.112;2022-08-23T12:57:26;2.75;;;1.90;;
9176;SDS011;4623;54.310;10.112;2022-08-23T13:00:14;2.22;;;1.92;;
9176;SDS011;4623;54.310;10.112;2022-08-23T13:02:54;3.25;;;1.48;;
9176;SDS011;4623;54.310;10.112;2022-08-23T13:05:35;4.43;;;1.98;;
9176;SDS011;4623;54.310;10.112;2022-08-23T13:08:06;1.48;;;1.13;;
9176;SDS011;4623;54.310;10.112;2022-08-23T13:10:34;3.78;;;1.73;;
9176;SDS011;4623;54.310;10.112;2022-08-23T13:13:02;2.85;;;1.77;;
9176;SDS011;4623;54.310;10.112;2022-08-23T13:18:21;3.45;;;1.80;;
9176;SDS011;4623;54.310;10.112;2022-08-23T13:23:48;2.25;;;1.88;;
9176;SDS011;4623;54.310;10.112;2022-08-23T13:26:25;2.00;;;1.55;;
9176;SDS011;4623;54.310;10.112;2022-08-23T13:39:46;2.35;;;1.30;;
9176;SDS011;4623;54.310;10.112;2022-08-23T13:42:23;2.67;;;1.60;;
9176;SDS011;4623;54.310;10.112;2022-08-23T13:45:04;1.95;;;1.20;;
9176;SDS011;4623;54.310;10.112;2022-08-23T13:47:42;1.75;;;1.30;;
9176;SDS011;4623;54.310;10.112;2022-08-23T13:50:17;2.80;;;1.77;;
9176;SDS011;4623;54.310;10.112;2022-08-23T13:52:48;4.70;;;1.80;;
9176;SDS011;4623;54.310;10.112;2022-08-23T13:55:14;2.42;;;1.40;;
9176;SDS011;4623;54.310;10.112;2022-08-23T13:57:40;3.28;;;1.60;;
9176;SDS011;4623;54.310;10.112;2022-08-23T14:00:06;2.10;;;1.33;;
9176;SDS011;4623;54.310;10.112;2022-08-23T14:02:34;4.38;;;1.80;;
9176;SDS011;4623;54.310;10.112;2022-08-23T14:05:01;3.72;;;1.52;;
9176;SDS011;4623;54.310;10.112;2022-08-23T14:07:27;2.50;;;1.80;;
9176;SDS011;4623;54.310;10.112;2022-08-23T14:09:53;2.30;;;1.40;;
9176;SDS011;4623;54.310;10.112;2022-08-23T14:12:21;2.55;;;1.45;;
9176;SDS011;4623;54.310;10.112;2022-08-23T14:14:50;2.55;;;1.80;;
9176;SDS011;4623;54.310;10.112;2022-08-23T14:17:16;2.97;;;1.38;;
9176;SDS011;4623;54.310;10.112;2022-08-23T14:19:42;7.53;;;1.50;;
9176;SDS011;4623;54.310;10.112;2022-08-23T14:22:11;2.92;;;1.60;;
9176;SDS011;4623;54.310;10.112;2022-08-23T14:24:38;4.68;;;1.80;;
9176;SDS011;4623;54.310;10.112;2022-08-23T14:27:03;1.50;;;1.40;;
9176;SDS011;4623;54.310;10.112;2022-08-23T14:29:30;2.95;;;1.50;;
9176;SDS011;4623;54.310;10.112;2022-08-23T14:31:57;3.03;;;1.30;;
9176;SDS011;4623;54.310;10.112;2022-08-23T14:34:24;3.47;;;2.13;;
9176;SDS011;4623;54.310;10.112;2022-08-23T14:36:52;3.53;;;2.05;;
9176;SDS011;4623;54.310;10.112;2022-08-23T14:39:19;2.20;;;1.40;;
9176;SDS011;4623;54.310;10.112;2022-08-23T14:41:45;3.28;;;1.92;;
9176;SDS011;4623;54.310;10.112;2022-08-23T14:44:11;3.15;;;1.55;;
9176;SDS011;4623;54.310;10.112;2022-08-23T14:46:41;3.25;;;1.75;;
9176;SDS011;4623;54.310;10.112;2022-08-23T14:49:07;2.00;;;1.80;;
9176;SDS011;4623;54.310;10.112;2022-08-23T14:51:35;2.90;;;1.70;;
9176;SDS011;4623;54.310;10.112;2022-08-23T14:54:04;1.77;;;1.25;;
9176;SDS011;4623;54.310;10.112;2022-08-23T14:56:30;3.90;;;1.60;;
9176;SDS011;4623;54.310;10.112;2022-08-23T14:58:57;2.53;;;1.45;;
9176;SDS011;4623;54.310;10.112;2022-08-23T15:01:22;2.95;;;1.80;;
9176;SDS011;4623;54.310;10.112;2022-08-23T15:03:48;2.08;;;1.50;;
9176;SDS011;4623;54.310;10.112;2022-08-23T15:06:15;4.00;;;1.35;;
9176;SDS011;4623;54.310;10.112;2022-08-23T15:08:42;4.40;;;1.65;;
9176;SDS011;4623;54.310;10.112;2022-08-23T15:11:08;2.05;;;1.50;;
9176;SDS011;4623;54.310;10.112;2022-08-23T15:13:35;3.85;;;1.67;;
9176;SDS011;4623;54.310;10.112;2022-08-23T15:16:05;2.08;;;1.52;;
9176;SDS011;4623;54.310;10.112;2022-08-23T15:18:32;3.70;;;2.00;;
9176;SDS011;4623;54.310;10.112;2022-08-23T15:20:59;2.95;;;1.95;;
9176;SDS011;4623;54.310;10.112;2022-08-23T15:23:25;4.65;;;1.95;;
9176;SDS011;4623;54.310;10.112;2022-08-23T15:25:51;1.48;;;1.30;;
9176;SDS011;4623;54.310;10.112;2022-08-23T15:28:18;3.35;;;1.50;;
9176;SDS011;4623;54.310;10.112;2022-08-23T15:30:45;2.50;;;1.60;;
9176;SDS011;4623;54.310;10.112;2022-08-23T15:33:12;2.55;;;1.50;;
9176;SDS011;4623;54.310;10.112;2022-08-23T15:35:40;2.50;;;1.70;;
9176;SDS011;4623;54.310;10.112;2022-08-23T15:38:08;3.33;;;2.00;;
9176;SDS011;4623;54.310;10.112;2022-08-23T15:40:34;3.88;;;1.88;;
9176;SDS011;4623;54.310;10.112;2022-08-23T15:43:00;3.38;;;1.85;;
9176;SDS011;4623;54.310;10.112;2022-08-23T15:45:27;2.97;;;1.70;;
9176;SDS011;4623;54.310;10.112;2022-08-23T15:47:54;2.55;;;1.50;;
9176;SDS011;4623;54.310;10.112;2022-08-23T15:50:26;3.00;;;1.67;;
9176;SDS011;4623;54.310;10.112;2022-08-23T15:52:55;2.75;;;1.48;;
9176;SDS011;4623;54.310;10.112;2022-08-23T15:55:22;2.80;;;1.85;;
9176;SDS011;4623;54.310;10.112;2022-08-23T15:57:49;2.97;;;1.48;;
9176;SDS011;4623;54.310;10.112;2022-08-23T16:00:17;5.10;;;1.95;;
9176;SDS011;4623;54.310;10.112;2022-08-23T16:02:44;1.98;;;1.42;;
9176;SDS011;4623;54.310;10.112;2022-08-23T16:05:11;4.43;;;1.70;;
9176;SDS011;4623;54.310;10.112;2022-08-23T16:07:38;1.85;;;1.30;;
9176;SDS011;4623;54.310;10.112;2022-08-23T16:10:06;2.70;;;1.50;;
9176;SDS011;4623;54.310;10.112;2022-08-23T16:12:32;5.68;;;2.35;;
9176;SDS011;4623;54.310;10.112;2022-08-23T16:14:58;3.75;;;1.95;;
9176;SDS011;4623;54.310;10.112;2022-08-23T16:17:24;2.00;;;1.52;;
9176;SDS011;4623;54.310;10.112;2022-08-23T16:19:50;2.05;;;1.48;;
9176;SDS011;4623;54.310;10.112;2022-08-23T16:22:16;3.60;;;1.88;;
9176;SDS011;4623;54.310;10.112;2022-08-23T16:24:42;4.57;;;1.83;;
9176;SDS011;4623;54.310;10.112;2022-08-23T16:27:08;2.45;;;1.50;;
9176;SDS011;4623;54.310;10.112;2022-08-23T16:29:34;4.97;;;1.83;;
9176;SDS011;4623;54.310;10.112;2022-08-23T16:32:03;4.00;;;2.20;;
9176;SDS011;4623;54.310;10.112;2022-08-23T16:34:29;4.20;;;2.33;;
9176;SDS011;4623;54.310;10.112;2022-08-23T16:36:56;2.72;;;1.92;;
9176;SDS011;4623;54.310;10.112;2022-08-23T16:39:23;3.92;;;1.90;;
9176;SDS011;4623;54.310;10.112;2022-08-23T16:41:49;4.60;;;1.63;;
9176;SDS011;4623;54.310;10.112;2022-08-23T16:44:15;2.95;;;1.50;;
9176;SDS011;4623;54.310;10.112;2022-08-23T16:46:41;2.95;;;1.52;;
9176;SDS011;4623;54.310;10.112;2022-08-23T16:49:11;2.42;;;1.58;;
9176;SDS011;4623;54.310;10.112;2022-08-23T16:51:39;3.25;;;1.50;;
9176;SDS011;4623;54.310;10.112;2022-08-23T16:54:05;4.60;;;1.80;;
9176;SDS011;4623;54.310;10.112;2022-08-23T16:56:32;2.83;;;1.55;;
9176;SDS011;4623;54.310;10.112;2022-08-23T16:58:59;2.47;;;1.60;;
9176;SDS011;4623;54.310;10.112;2022-08-23T17:01:26;3.78;;;1.60;;
9176;SDS011;4623;54.310;10.112;2022-08-23T17:03:53;1.92;;;1.27;;
9176;SDS011;4623;54.310;10.112;2022-08-23T17:06:18;1.77;;;1.33;;
9176;SDS011;4623;54.310;10.112;2022-08-23T17:08:44;4.72;;;1.70;;
9176;SDS011;4623;54.310;10.112;2022-08-23T17:11:11;2.13;;;1.45;;
9176;SDS011;4623;54.310;10.112;2022-08-23T17:13:41;4.10;;;1.73;;